Time;durP1;ratioP1;P1;durP2;ratioP2;P2;SDS_P1;SDS_P2;PMS_P1;PMS_P2;Temp;Humidity;BMP_temperature;BMP_pressure;BME280_temperature;BME280_humidity;BME280_pressure;Samples;Min_cycle;Max_cycle;Signal;HPM_P1;HPM_P2
2023/01/18 00:02:48;;;;;;;1.05;0.28;;;;;;;;;;20995715;28;20120;-63
2023/01/18 00:12:50;;;;;;;1.40;0.20;;;;;;;;;;21008164;28;20056;-68
2023/01/18 00:22:52;;;;;;;0.20;0.10;;;;;;;;;;21008236;28;20161;-65
2023/01/18 00:32:55;;;;;;;0.30;0.20;;;;;;;;;;21008342;28;20041;-65
2023/01/18 00:53:18;;;;;;;0.85;0.10;;;;;;;;;;21006790;28;20040;-67
2023/01/18 01:03:20;;;;;;;0.35;0.10;;;;;;;;;;21005419;28;20052;-68
2023/01/18 01:34:06;;;;;;;0.47;0.10;;;;;;;;;;21003758;28;20052;-65
2023/01/18 01:44:28;;;;;;;0.30;0.17;;;;;;;;;;21002015;28;20060;-66
2023/01/18 01:54:33;;;;;;;0.10;0.10;;;;;;;;;;21001491;28;20052;-66
2023/01/18 02:04:35;;;;;;;1.83;0.28;;;;;;;;;;21000335;28;20178;-67
2023/01/18 02:14:36;;;;;;;1.75;0.28;;;;;;;;;;21000186;28;20489;-67
2023/01/18 02:25:10;;;;;;;1.90;0.20;;;;;;;;;;20999312;28;20153;-64
2023/01/18 02:35:23;;;;;;;0.40;0.15;;;;;;;;;;20906670;28;20374;-65
2023/01/18 02:55:54;;;;;;;0.73;0.10;;;;;;;;;;20905511;28;20128;-66
2023/01/18 03:05:58;;;;;;;0.25;0.17;;;;;;;;;;20941393;28;20139;-66
2023/01/18 03:16:09;;;;;;;0.45;0.10;;;;;;;;;;20995721;28;20090;-66
2023/01/18 03:26:17;;;;;;;6.27;3.50;;;;;;;;;;20995749;28;20496;-66
2023/01/18 03:36:35;;;;;;;0.63;0.20;;;;;;;;;;20995771;28;20051;-66
2023/01/18 03:46:56;;;;;;;1.85;0.20;;;;;;;;;;21010227;28;20054;-67
2023/01/18 03:57:37;;;;;;;1.27;0.20;;;;;;;;;;21012137;28;20044;-68
2023/01/18 04:07:49;;;;;;;1.88;0.28;;;;;;;;;;21010936;28;20059;-66
2023/01/18 04:17:57;;;;;;;1.30;0.20;;;;;;;;;;21009247;28;20539;-66
2023/01/18 04:27:59;;;;;;;1.15;0.20;;;;;;;;;;21009274;28;20488;-67
2023/01/18 04:38:02;;;;;;;0.35;0.13;;;;;;;;;;21007123;28;20445;-66
2023/01/18 04:48:12;;;;;;;0.50;0.10;;;;;;;;;;21006271;28;20052;-66
2023/01/18 04:58:14;;;;;;;1.60;0.22;;;;;;;;;;21004707;28;20044;-65
2023/01/18 05:08:16;;;;;;;0.95;0.20;;;;;;;;;;21005873;28;20473;-66
2023/01/18 05:18:18;;;;;;;3.58;0.63;;;;;;;;;;21004772;28;20098;-66
2023/01/18 05:28:21;;;;;;;0.73;0.22;;;;;;;;;;21005108;28;20204;-67
2023/01/18 05:38:23;;;;;;;0.75;0.20;;;;;;;;;;21015204;28;20052;-67
2023/01/18 05:48:25;;;;;;;0.65;0.20;;;;;;;;;;21002865;28;20476;-68
2023/01/18 05:58:27;;;;;;;2.17;0.20;;;;;;;;;;21001727;28;20143;-68
2023/01/18 06:08:29;;;;;;;1.15;0.30;;;;;;;;;;21000538;28;20048;-67
2023/01/18 06:18:32;;;;;;;2.00;0.30;;;;;;;;;;20999316;28;20044;-70
2023/01/18 06:28:34;;;;;;;1.00;0.10;;;;;;;;;;20998467;28;20056;-69
2023/01/18 06:38:36;;;;;;;0.55;0.10;;;;;;;;;;20997744;28;20487;-66
2023/01/18 06:48:38;;;;;;;0.32;0.15;;;;;;;;;;20997117;28;20182;-65
2023/01/18 06:58:41;;;;;;;2.60;0.30;;;;;;;;;;20996149;28;20044;-65
2023/01/18 07:08:43;;;;;;;0.55;0.10;;;;;;;;;;20995848;28;20102;-65
2023/01/18 07:18:47;;;;;;;0.40;0.15;;;;;;;;;;20995482;28;20063;-67
2023/01/18 07:28:48;;;;;;;1.58;0.20;;;;;;;;;;20996851;28;20049;-67
2023/01/18 07:38:51;;;;;;;0.85;0.47;;;;;;;;;;20994770;28;20063;-66
2023/01/18 07:48:53;;;;;;;0.57;0.20;;;;;;;;;;20996221;28;20052;-71
2023/01/18 07:58:55;;;;;;;2.55;0.30;;;;;;;;;;20994552;28;20416;-67
2023/01/18 08:08:57;;;;;;;1.45;0.22;;;;;;;;;;20995188;28;20526;-69
2023/01/18 08:18:59;;;;;;;0.47;0.17;;;;;;;;;;20993470;28;20045;-67
2023/01/18 08:29:01;;;;;;;0.98;0.20;;;;;;;;;;21000094;28;20131;-69
2023/01/18 08:39:03;;;;;;;3.17;0.68;;;;;;;;;;21007351;28;20049;-67
2023/01/18 08:49:05;;;;;;;0.73;0.28;;;;;;;;;;21007145;28;20049;-69
2023/01/18 08:59:07;;;;;;;0.30;0.10;;;;;;;;;;21006373;28;20457;-68
2023/01/18 09:09:10;;;;;;;1.92;0.38;;;;;;;;;;21005523;28;20094;-73
2023/01/18 09:19:12;;;;;;;0.20;0.10;;;;;;;;;;21004289;28;20045;-69
2023/01/18 09:29:15;;;;;;;1.45;0.10;;;;;;;;;;21003854;28;20059;-72
2023/01/18 09:39:17;;;;;;;0.93;0.60;;;;;;;;;;21002157;28;20048;-73
2023/01/18 09:49:24;;;;;;;1.08;0.13;;;;;;;;;;21002805;28;20049;-72
2023/01/18 09:59:31;;;;;;;0.55;0.20;;;;;;;;;;21000645;28;20055;-72
2023/01/18 10:09:39;;;;;;;1.08;0.32;;;;;;;;;;21000681;28;20389;-66
2023/01/18 10:19:41;;;;;;;0.47;0.20;;;;;;;;;;20998937;28;20044;-70
2023/01/18 10:29:46;;;;;;;0.32;0.10;;;;;;;;;;20998499;28;20052;-65
2023/01/18 10:39:51;;;;;;;1.33;0.22;;;;;;;;;;20997806;28;20052;-64
2023/01/18 10:49:57;;;;;;;0.10;0.00;;;;;;;;;;20997518;28;20044;-63
2023/01/18 10:59:59;;;;;;;0.70;0.20;;;;;;;;;;20996929;28;20055;-67
2023/01/18 11:10:08;;;;;;;0.82;0.30;;;;;;;;;;20997121;28;20137;-67
2023/01/18 11:20:32;;;;;;;0.40;0.20;;;;;;;;;;20993785;28;20055;-65
2023/01/18 11:30:36;;;;;;;1.23;0.50;;;;;;;;;;20993991;28;20049;-68
2023/01/18 11:40:38;;;;;;;0.63;0.20;;;;;;;;;;20994620;28;20061;-65
2023/01/18 11:50:46;;;;;;;1.85;0.25;;;;;;;;;;20993538;28;20049;-66
2023/01/18 12:00:53;;;;;;;0.45;0.20;;;;;;;;;;20995254;28;20060;-67
2023/01/18 12:11:14;;;;;;;0.70;0.30;;;;;;;;;;21008162;28;20481;-66
2023/01/18 12:21:35;;;;;;;1.50;0.47;;;;;;;;;;21009999;28;20185;-67
2023/01/18 12:31:45;;;;;;;0.57;0.30;;;;;;;;;;21007667;28;20468;-69
2023/01/18 12:41:47;;;;;;;1.00;0.50;;;;;;;;;;21006521;28;20430;-65
2023/01/18 12:51:54;;;;;;;0.80;0.15;;;;;;;;;;21006716;28;20450;-65
2023/01/18 13:02:03;;;;;;;2.10;0.55;;;;;;;;;;21003717;28;20094;-65
2023/01/18 13:12:06;;;;;;;2.10;0.27;;;;;;;;;;21003240;28;20049;-66
2023/01/18 13:22:34;;;;;;;0.45;0.20;;;;;;;;;;21002967;28;20098;-66
2023/01/18 13:32:37;;;;;;;0.80;0.22;;;;;;;;;;21003163;28;20114;-66
2023/01/18 13:42:39;;;;;;;1.15;0.17;;;;;;;;;;21002564;28;20126;-66
2023/01/18 13:52:42;;;;;;;1.00;0.20;;;;;;;;;;21002366;28;20052;-67
2023/01/18 14:02:50;;;;;;;1.67;0.45;;;;;;;;;;21001435;28;20048;-66
2023/01/18 14:12:54;;;;;;;2.95;1.05;;;;;;;;;;20999769;28;20051;-66
2023/01/18 14:23:15;;;;;;;0.98;0.45;;;;;;;;;;20999140;28;20101;-66
2023/01/18 14:33:25;;;;;;;1.45;0.30;;;;;;;;;;20997461;28;20053;-66
2023/01/18 14:43:31;;;;;;;1.35;0.60;;;;;;;;;;20997403;28;20056;-68
2023/01/18 14:53:41;;;;;;;2.22;0.40;;;;;;;;;;20997611;28;20129;-67
2023/01/18 15:03:45;;;;;;;1.85;0.80;;;;;;;;;;20996100;28;20052;-65
2023/01/18 15:13:49;;;;;;;0.90;0.40;;;;;;;;;;20996643;28;20055;-65
2023/01/18 15:23:52;;;;;;;0.60;0.15;;;;;;;;;;20995683;28;20055;-63
2023/01/18 15:33:56;;;;;;;1.15;0.20;;;;;;;;;;20995882;28;20045;-66
2023/01/18 15:43:58;;;;;;;0.65;0.20;;;;;;;;;;21011173;28;20507;-65
2023/01/18 15:54:00;;;;;;;2.97;0.25;;;;;;;;;;21012068;28;20053;-65
2023/01/18 16:04:05;;;;;;;1.58;0.20;;;;;;;;;;21009875;28;20053;-63
2023/01/18 16:14:26;;;;;;;1.05;0.30;;;;;;;;;;21010169;28;20045;-67
2023/01/18 16:24:32;;;;;;;3.13;0.30;;;;;;;;;;21008738;28;20049;-65
2023/01/18 16:34:34;;;;;;;1.20;0.40;;;;;;;;;;21008026;28;20094;-67
2023/01/18 16:44:36;;;;;;;3.45;1.23;;;;;;;;;;21007498;28;20063;-65
2023/01/18 16:54:42;;;;;;;1.00;0.35;;;;;;;;;;21006384;28;20075;-64
2023/01/18 17:04:45;;;;;;;0.40;0.13;;;;;;;;;;21006840;28;20079;-66
2023/01/18 17:14:47;;;;;;;0.98;0.40;;;;;;;;;;21005142;28;20090;-64
2023/01/18 17:24:52;;;;;;;0.80;0.22;;;;;;;;;;21003329;28;20052;-64
2023/01/18 17:34:54;;;;;;;0.60;0.30;;;;;;;;;;21003312;28;20052;-66
2023/01/18 17:45:02;;;;;;;4.35;2.13;;;;;;;;;;20944776;28;20484;-60
2023/01/18 17:55:05;;;;;;;2.15;0.80;;;;;;;;;;20918184;28;20048;-63
2023/01/18 18:05:07;;;;;;;1.60;0.60;;;;;;;;;;20917232;28;20045;-62
2023/01/18 18:15:09;;;;;;;6.18;2.45;;;;;;;;;;20923182;28;20394;-67
2023/01/18 18:25:12;;;;;;;1.92;0.88;;;;;;;;;;20920264;28;20048;-62
2023/01/18 18:35:14;;;;;;;1.75;1.02;;;;;;;;;;20976825;28;20076;-61
2023/01/18 18:45:16;;;;;;;5.05;0.60;;;;;;;;;;20924160;28;20057;-62
2023/01/18 18:55:18;;;;;;;0.93;0.30;;;;;;;;;;20913753;28;20052;-60
2023/01/18 19:05:20;;;;;;;0.63;0.50;;;;;;;;;;20912701;28;20136;-64
2023/01/18 19:15:22;;;;;;;0.60;0.25;;;;;;;;;;20922858;28;20081;-73
2023/01/18 19:25:23;;;;;;;0.95;0.43;;;;;;;;;;20913573;28;20504;-68
2023/01/18 19:35:26;;;;;;;3.65;0.70;;;;;;;;;;20913066;28;20041;-68
2023/01/18 19:45:28;;;;;;;1.70;0.60;;;;;;;;;;20912200;28;20048;-68
2023/01/18 19:55:30;;;;;;;3.65;1.00;;;;;;;;;;20911917;28;20045;-65
2023/01/18 20:05:32;;;;;;;3.65;1.00;;;;;;;;;;20910885;28;20071;-68
2023/01/18 20:15:34;;;;;;;3.13;1.20;;;;;;;;;;20911974;28;20049;-67
2023/01/18 20:25:36;;;;;;;3.97;1.25;;;;;;;;;;20918332;28;20049;-69
2023/01/18 20:35:38;;;;;;;1.00;0.50;;;;;;;;;;20924838;28;20509;-65
2023/01/18 20:45:40;;;;;;;1.73;0.30;;;;;;;;;;20925976;28;20053;-64
2023/01/18 20:55:42;;;;;;;2.60;0.43;;;;;;;;;;20925520;28;20055;-67
2023/01/18 21:05:44;;;;;;;2.20;0.65;;;;;;;;;;20925133;28;20072;-66
2023/01/18 21:15:53;;;;;;;6.25;1.48;;;;;;;;;;20924120;28;20045;-69
2023/01/18 21:25:56;;;;;;;2.50;0.80;;;;;;;;;;20921765;28;20064;-66
2023/01/18 21:36:03;;;;;;;0.75;0.32;;;;;;;;;;20921345;28;20045;-68
2023/01/18 21:46:06;;;;;;;2.10;0.63;;;;;;;;;;20920344;28;20055;-64
2023/01/18 21:56:08;;;;;;;6.53;1.67;;;;;;;;;;20920905;28;20049;-65
2023/01/18 22:06:11;;;;;;;5.15;1.10;;;;;;;;;;20917714;28;20045;-68
2023/01/18 22:16:12;;;;;;;2.17;0.60;;;;;;;;;;20916738;28;20045;-66
2023/01/18 22:26:14;;;;;;;4.05;1.38;;;;;;;;;;20916540;28;20053;-67
2023/01/18 22:36:16;;;;;;;1.27;0.40;;;;;;;;;;20915050;28;20489;-68
2023/01/18 22:46:19;;;;;;;1.17;0.45;;;;;;;;;;20913509;28;20106;-67
2023/01/18 22:56:23;;;;;;;0.88;0.30;;;;;;;;;;20913481;28;20067;-66
2023/01/18 23:06:26;;;;;;;2.22;0.30;;;;;;;;;;20912762;28;20052;-67
2023/01/18 23:26:49;;;;;;;;;;;;;;;;;;20911928;28;20061;-67
2023/01/18 23:36:51;;;;;;;1.73;0.20;;;;;;;;;;20910722;28;19933;-64
2023/01/18 23:57:14;;;;;;;1.45;0.40;;;;;;;;;;20914244;28;20145;-67
